PWSweather.com
Personal Weather Stations
Station Observations
EA5BZ
Nuevo Altabix, ElcheES

Nuevo AltabixElcheES

Lat: 38.276, Lon: -0.671

Elevation: 0

Station Type: Davis Vantage Pro 2

http://meteoelche.es

High Low Average
Temperature 71.5°F21.9°C 57.4°F14.1°C 61.3°F16.3°C
Dew Point 52.9°F11.6°C 42.1°F5.6°C 45.8°F7.7°C
Winds 17.9 mph 28.8 kmh 1.3 mph 2.1 kmh 9.0 mph SW14.5 kmh SW
Wind Gusts 32.7 mph52.6 kmh 3.1 mph5.0 kmh 15.0 mph24.1 kmh
Humidity 76% 35% 58%
Pressure 30.14 in1020.7 mb 30.01 in1016.3 mb -
Precipitation 0.00 in0.0 mm - -
Hour Temp Dew Point Humidity Winds Wind Gusts Pressure Precip Precip Rate Daily Precip Total
12:00 AM 59.1°F15.1°C 43.6°F6.4°C 56% 8.7 mph SW14.0 kmh SW 16.3 mph26.2 kmh 30.12 in1020.0 mb 0.00 in0.0 mm 0.00 in0.0 mm 0.00 in0.0 mm
12:05 AM 59.4°F15.2°C 43.7°F6.5°C 56% 9.5 mph SW15.3 kmh SW 18.1 mph29.1 kmh 30.12 in1020.0 mb 0.00 in0.0 mm 0.00 in0.0 mm 0.00 in0.0 mm
12:10 AM 59.8°F15.4°C 43.6°F6.4°C 55% 11.4 mph SW18.3 kmh SW 19.7 mph31.7 kmh 30.12 in1020.0 mb 0.00 in0.0 mm 0.00 in0.0 mm 0.00 in0.0 mm
12:15 AM 60.1°F15.6°C 43.9°F6.6°C 55% 11.7 mph SW18.8 kmh SW 16.8 mph27.0 kmh 30.12 in1020.0 mb 0.00 in0.0 mm 0.00 in0.0 mm 0.00 in0.0 mm
12:20 AM 60.2°F15.7°C 44.0°F6.7°C 55% 12.3 mph SW19.8 kmh SW 15.7 mph25.3 kmh 30.12 in1020.0 mb 0.00 in0.0 mm 0.00 in0.0 mm 0.00 in0.0 mm
12:25 AM 60.1°F15.6°C 43.9°F6.6°C 55% 11.7 mph SW18.8 kmh SW 14.1 mph22.7 kmh 30.11 in1019.6 mb 0.00 in0.0 mm 0.00 in0.0 mm 0.00 in0.0 mm
12:30 AM 60.1°F15.6°C 43.9°F6.6°C 55% 10.1 mph SW16.3 kmh SW 12.3 mph19.8 kmh 30.11 in1019.6 mb 0.00 in0.0 mm 0.00 in0.0 mm 0.00 in0.0 mm
12:35 AM 60.1°F15.6°C 44.0°F6.7°C 55% 9.2 mph SW14.8 kmh SW 10.1 mph16.3 kmh 30.11 in1019.6 mb 0.00 in0.0 mm 0.00 in0.0 mm 0.00 in0.0 mm
12:40 AM 60.1°F15.6°C 44.3°F6.8°C 56% 6.9 mph SW11.1 kmh SW 11.4 mph18.3 kmh 30.11 in1019.6 mb 0.00 in0.0 mm 0.00 in0.0 mm 0.00 in0.0 mm
12:45 AM 60.2°F15.7°C 44.5°F6.9°C 56% 6.4 mph SW10.3 kmh SW 10.7 mph17.2 kmh 30.11 in1019.6 mb 0.00 in0.0 mm 0.00 in0.0 mm 0.00 in0.0 mm
12:50 AM 60.2°F15.7°C 44.4°F6.9°C 56% 5.1 mph SW8.2 kmh SW 11.9 mph19.2 kmh 30.11 in1019.6 mb 0.00 in0.0 mm 0.00 in0.0 mm 0.00 in0.0 mm
12:55 AM 60.1°F15.6°C 44.3°F6.8°C 56% 5.1 mph SW8.2 kmh SW 8.5 mph13.7 kmh 30.11 in1019.6 mb 0.00 in0.0 mm 0.00 in0.0 mm 0.00 in0.0 mm
01:00 AM 60.0°F15.6°C 44.2°F6.8°C 56% 5.1 mph SSW8.2 kmh SSW 14.5 mph23.3 kmh 30.11 in1019.6 mb 0.00 in0.0 mm 0.00 in0.0 mm 0.00 in0.0 mm
01:05 AM 59.9°F15.5°C 44.3°F6.8°C 56% 5.8 mph SSW9.3 kmh SSW 14.5 mph23.3 kmh 30.11 in1019.6 mb 0.00 in0.0 mm 0.00 in0.0 mm 0.00 in0.0 mm
01:10 AM 60.0°F15.6°C 44.2°F6.8°C 56% 7.4 mph SW11.9 kmh SW 13.0 mph20.9 kmh 30.11 in1019.6 mb 0.00 in0.0 mm 0.00 in0.0 mm 0.00 in0.0 mm
01:15 AM 60.1°F15.6°C 44.4°F6.9°C 56% 7.9 mph SW12.7 kmh SW 14.5 mph23.3 kmh 30.11 in1019.6 mb 0.00 in0.0 mm 0.00 in0.0 mm 0.00 in0.0 mm
01:20 AM 60.3°F15.7°C 44.5°F6.9°C 56% 9.2 mph SW14.8 kmh SW 14.1 mph22.7 kmh 30.11 in1019.6 mb 0.00 in0.0 mm 0.00 in0.0 mm 0.00 in0.0 mm
01:25 AM 60.3°F15.7°C 44.2°F6.8°C 55% 9.0 mph SW14.5 kmh SW 11.9 mph19.2 kmh 30.11 in1019.6 mb 0.00 in0.0 mm 0.00 in0.0 mm 0.00 in0.0 mm
01:30 AM 60.3°F15.7°C 44.0°F6.7°C 55% 8.5 mph SW13.7 kmh SW 10.1 mph16.3 kmh 30.11 in1019.6 mb 0.00 in0.0 mm 0.00 in0.0 mm 0.00 in0.0 mm
01:35 AM 60.1°F15.6°C 44.2°F6.8°C 56% 7.2 mph SW11.6 kmh SW 8.5 mph13.7 kmh 30.11 in1019.6 mb 0.00 in0.0 mm 0.00 in0.0 mm 0.00 in0.0 mm
01:40 AM 59.9°F15.5°C 44.2°F6.8°C 56% 4.0 mph S6.4 kmh S 4.7 mph7.6 kmh 30.11 in1019.6 mb 0.00 in0.0 mm 0.00 in0.0 mm 0.00 in0.0 mm
01:45 AM 59.8°F15.4°C 44.0°F6.7°C 56% 3.8 mph S6.1 kmh S 17.4 mph28.0 kmh 30.11 in1019.6 mb 0.00 in0.0 mm 0.00 in0.0 mm 0.00 in0.0 mm
01:50 AM 59.8°F15.4°C 43.6°F6.4°C 55% 3.1 mph SSW5.0 kmh SSW 17.0 mph27.4 kmh 30.11 in1019.6 mb 0.00 in0.0 mm 0.00 in0.0 mm 0.00 in0.0 mm
01:55 AM 60.0°F15.6°C 43.8°F6.6°C 55% 4.3 mph SW6.9 kmh SW 13.4 mph21.6 kmh 30.10 in1019.3 mb 0.00 in0.0 mm 0.00 in0.0 mm 0.00 in0.0 mm
02:00 AM 60.1°F15.6°C 43.9°F6.6°C 55% 7.4 mph SW11.9 kmh SW 11.4 mph18.3 kmh 30.10 in1019.3 mb 0.00 in0.0 mm 0.00 in0.0 mm 0.00 in0.0 mm
02:05 AM 60.1°F15.6°C 43.9°F6.6°C 55% 7.1 mph SW11.4 kmh SW 8.7 mph14.0 kmh 30.10 in1019.3 mb 0.00 in0.0 mm 0.00 in0.0 mm 0.00 in0.0 mm
02:10 AM 60.1°F15.6°C 43.9°F6.6°C 55% 6.5 mph SW10.5 kmh SW 12.5 mph20.1 kmh 30.10 in1019.3 mb 0.00 in0.0 mm 0.00 in0.0 mm 0.00 in0.0 mm
02:15 AM 60.1°F15.6°C 43.9°F6.6°C 55% 6.4 mph SW10.3 kmh SW 14.1 mph22.7 kmh 30.11 in1019.6 mb 0.00 in0.0 mm 0.00 in0.0 mm 0.00 in0.0 mm
02:20 AM 60.2°F15.7°C 44.0°F6.7°C 55% 6.3 mph WSW10.1 kmh WSW 14.8 mph23.8 kmh 30.11 in1019.6 mb 0.00 in0.0 mm 0.00 in0.0 mm 0.00 in0.0 mm
02:25 AM 60.3°F15.7°C 44.0°F6.7°C 55% 6.9 mph WSW11.1 kmh WSW 12.3 mph19.8 kmh 30.10 in1019.3 mb 0.00 in0.0 mm 0.00 in0.0 mm 0.00 in0.0 mm
02:30 AM 60.3°F15.7°C 43.6°F6.4°C 54% 8.5 mph WSW13.7 kmh WSW 8.5 mph13.7 kmh 30.10 in1019.3 mb 0.00 in0.0 mm 0.00 in0.0 mm 0.00 in0.0 mm
02:35 AM 60.3°F15.7°C 43.5°F6.4°C 54% 7.1 mph SW11.4 kmh SW 8.5 mph13.7 kmh 30.10 in1019.3 mb 0.00 in0.0 mm 0.00 in0.0 mm 0.00 in0.0 mm
02:40 AM 60.3°F15.7°C 43.5°F6.4°C 54% 3.6 mph S5.8 kmh S 5.4 mph8.7 kmh 30.11 in1019.6 mb 0.00 in0.0 mm 0.00 in0.0 mm 0.00 in0.0 mm
02:45 AM 60.2°F15.7°C 43.5°F6.4°C 54% 3.6 mph S5.8 kmh S 7.4 mph11.9 kmh 30.11 in1019.6 mb 0.00 in0.0 mm 0.00 in0.0 mm 0.00 in0.0 mm
02:50 AM 60.2°F15.7°C 43.5°F6.4°C 54% 3.6 mph S5.8 kmh S 8.1 mph13.0 kmh 30.11 in1019.6 mb 0.00 in0.0 mm 0.00 in0.0 mm 0.00 in0.0 mm
02:55 AM 60.1°F15.6°C 43.4°F6.3°C 54% 4.1 mph S6.6 kmh S 18.6 mph29.9 kmh 30.11 in1019.6 mb 0.00 in0.0 mm 0.00 in0.0 mm 0.00 in0.0 mm
03:00 AM 60.1°F15.6°C 43.4°F6.3°C 54% 5.4 mph WSW8.7 kmh WSW 12.3 mph19.8 kmh 30.11 in1019.6 mb 0.00 in0.0 mm 0.00 in0.0 mm 0.00 in0.0 mm
03:05 AM 60.1°F15.6°C 43.4°F6.3°C 54% 6.0 mph WSW9.7 kmh WSW 19.0 mph30.6 kmh 30.11 in1019.6 mb 0.00 in0.0 mm 0.00 in0.0 mm 0.00 in0.0 mm
03:10 AM 60.0°F15.6°C 43.3°F6.3°C 54% 7.6 mph WSW12.2 kmh WSW 18.1 mph29.1 kmh 30.11 in1019.6 mb 0.00 in0.0 mm 0.00 in0.0 mm 0.00 in0.0 mm
03:15 AM 59.8°F15.4°C 43.1°F6.2°C 54% 7.9 mph WSW12.7 kmh WSW 14.8 mph23.8 kmh 30.11 in1019.6 mb 0.00 in0.0 mm 0.00 in0.0 mm 0.00 in0.0 mm
03:20 AM 59.7°F15.4°C 43.3°F6.3°C 55% 8.7 mph WSW14.0 kmh WSW 16.8 mph27.0 kmh 30.11 in1019.6 mb 0.00 in0.0 mm 0.00 in0.0 mm 0.00 in0.0 mm
03:25 AM 59.6°F15.3°C 43.4°F6.3°C 55% 8.7 mph WSW14.0 kmh WSW 14.1 mph22.7 kmh 30.11 in1019.6 mb 0.00 in0.0 mm 0.00 in0.0 mm 0.00 in0.0 mm
03:30 AM 59.5°F15.3°C 43.4°F6.3°C 55% 8.7 mph WSW14.0 kmh WSW 19.7 mph31.7 kmh 30.11 in1019.6 mb 0.00 in0.0 mm 0.00 in0.0 mm 0.00 in0.0 mm
03:35 AM 59.6°F15.3°C 43.4°F6.3°C 55% 9.7 mph WSW15.6 kmh WSW 29.8 mph48.0 kmh 30.11 in1019.6 mb 0.00 in0.0 mm 0.00 in0.0 mm 0.00 in0.0 mm
03:40 AM 59.7°F15.4°C 43.5°F6.4°C 55% 12.3 mph WSW19.8 kmh WSW 26.8 mph43.1 kmh 30.10 in1019.3 mb 0.00 in0.0 mm 0.00 in0.0 mm 0.00 in0.0 mm
03:45 AM 59.7°F15.4°C 43.5°F6.4°C 55% 12.1 mph WSW19.5 kmh WSW 14.5 mph23.3 kmh 30.10 in1019.3 mb 0.00 in0.0 mm 0.00 in0.0 mm 0.00 in0.0 mm
03:50 AM 59.5°F15.3°C 43.4°F6.3°C 55% 11.4 mph WSW18.3 kmh WSW 14.5 mph23.3 kmh 30.10 in1019.3 mb 0.00 in0.0 mm 0.00 in0.0 mm 0.00 in0.0 mm
03:55 AM 59.3°F15.2°C 43.6°F6.4°C 56% 10.5 mph WSW16.9 kmh WSW 13.4 mph21.6 kmh 30.10 in1019.3 mb 0.00 in0.0 mm 0.00 in0.0 mm 0.00 in0.0 mm
04:00 AM 59.1°F15.1°C 43.5°F6.4°C 56% 8.1 mph SW13.0 kmh SW 17.9 mph28.8 kmh 30.10 in1019.3 mb 0.00 in0.0 mm 0.00 in0.0 mm 0.00 in0.0 mm
04:05 AM 58.9°F14.9°C 43.7°F6.5°C 57% 8.6 mph SW13.8 kmh SW 17.4 mph28.0 kmh 30.10 in1019.3 mb 0.00 in0.0 mm 0.00 in0.0 mm 0.00 in0.0 mm
04:10 AM 58.8°F14.9°C 43.6°F6.4°C 57% 10.1 mph SW16.3 kmh SW 17.9 mph28.8 kmh 30.11 in1019.6 mb 0.00 in0.0 mm 0.00 in0.0 mm 0.00 in0.0 mm
04:15 AM 58.7°F14.8°C 43.6°F6.4°C 57% 10.6 mph SW17.1 kmh SW 19.2 mph30.9 kmh 30.11 in1019.6 mb 0.00 in0.0 mm 0.00 in0.0 mm 0.00 in0.0 mm
04:20 AM 58.6°F14.8°C 43.9°F6.6°C 58% 11.9 mph SW19.2 kmh SW 15.2 mph24.5 kmh 30.11 in1019.6 mb 0.00 in0.0 mm 0.00 in0.0 mm 0.00 in0.0 mm
04:25 AM 58.6°F14.8°C 43.9°F6.6°C 58% 11.4 mph SW18.3 kmh SW 17.4 mph28.0 kmh 30.10 in1019.3 mb 0.00 in0.0 mm 0.00 in0.0 mm 0.00 in0.0 mm
04:30 AM 58.5°F14.7°C 43.8°F6.6°C 58% 10.3 mph SW16.6 kmh SW 22.4 mph36.0 kmh 30.10 in1019.3 mb 0.00 in0.0 mm 0.00 in0.0 mm 0.00 in0.0 mm
04:35 AM 58.6°F14.8°C 43.9°F6.6°C 58% 11.2 mph SW18.0 kmh SW 19.7 mph31.7 kmh 30.10 in1019.3 mb 0.00 in0.0 mm 0.00 in0.0 mm 0.00 in0.0 mm
04:40 AM 58.6°F14.8°C 43.9°F6.6°C 58% 13.6 mph WSW21.9 kmh WSW 20.8 mph33.5 kmh 30.10 in1019.3 mb 0.00 in0.0 mm 0.00 in0.0 mm 0.00 in0.0 mm
04:45 AM 58.5°F14.7°C 43.8°F6.6°C 58% 13.5 mph WSW21.7 kmh WSW 21.5 mph34.6 kmh 30.10 in1019.3 mb 0.00 in0.0 mm 0.00 in0.0 mm 0.00 in0.0 mm
04:50 AM 58.5°F14.7°C 43.8°F6.6°C 58% 13.0 mph WSW20.9 kmh WSW 20.8 mph33.5 kmh 30.10 in1019.3 mb 0.00 in0.0 mm 0.00 in0.0 mm 0.00 in0.0 mm
04:55 AM 58.5°F14.7°C 43.8°F6.6°C 58% 13.3 mph WSW21.4 kmh WSW 21.3 mph34.3 kmh 30.09 in1019.0 mb 0.00 in0.0 mm 0.00 in0.0 mm 0.00 in0.0 mm
05:00 AM 58.4°F14.7°C 43.9°F6.6°C 58% 14.1 mph WSW22.7 kmh WSW 20.4 mph32.8 kmh 30.09 in1019.0 mb 0.00 in0.0 mm 0.00 in0.0 mm 0.00 in0.0 mm
05:05 AM 58.3°F14.6°C 44.0°F6.7°C 59% 14.2 mph WSW22.9 kmh WSW 23.0 mph37.0 kmh 30.09 in1019.0 mb 0.00 in0.0 mm 0.00 in0.0 mm 0.00 in0.0 mm
05:10 AM 58.4°F14.7°C 44.1°F6.7°C 59% 14.5 mph WSW23.3 kmh WSW 21.5 mph34.6 kmh 30.10 in1019.3 mb 0.00 in0.0 mm 0.00 in0.0 mm 0.00 in0.0 mm
05:15 AM 58.3°F14.6°C 44.0°F6.7°C 59% 14.7 mph WSW23.7 kmh WSW 20.8 mph33.5 kmh 30.10 in1019.3 mb 0.00 in0.0 mm 0.00 in0.0 mm 0.00 in0.0 mm
05:20 AM 58.3°F14.6°C 44.0°F6.7°C 59% 15.2 mph WSW24.5 kmh WSW 19.2 mph30.9 kmh 30.10 in1019.3 mb 0.00 in0.0 mm 0.00 in0.0 mm 0.00 in0.0 mm
05:25 AM 58.3°F14.6°C 44.0°F6.7°C 59% 14.9 mph WSW24.0 kmh WSW 20.8 mph33.5 kmh 30.10 in1019.3 mb 0.00 in0.0 mm 0.00 in0.0 mm 0.00 in0.0 mm
05:30 AM 58.3°F14.6°C 44.0°F6.7°C 59% 14.1 mph W22.7 kmh W 20.4 mph32.8 kmh 30.10 in1019.3 mb 0.00 in0.0 mm 0.00 in0.0 mm 0.00 in0.0 mm
05:35 AM 58.3°F14.6°C 44.0°F6.7°C 59% 13.7 mph WSW22.0 kmh WSW 19.2 mph30.9 kmh 30.10 in1019.3 mb 0.00 in0.0 mm 0.00 in0.0 mm 0.00 in0.0 mm
05:40 AM 58.3°F14.6°C 44.0°F6.7°C 59% 12.5 mph WSW20.1 kmh WSW 21.3 mph34.3 kmh 30.10 in1019.3 mb 0.00 in0.0 mm 0.00 in0.0 mm 0.00 in0.0 mm
05:45 AM 58.3°F14.6°C 44.0°F6.7°C 59% 13.4 mph WSW21.6 kmh WSW 23.0 mph37.0 kmh 30.10 in1019.3 mb 0.00 in0.0 mm 0.00 in0.0 mm 0.00 in0.0 mm
05:50 AM 58.3°F14.6°C 44.0°F6.7°C 59% 15.7 mph WSW25.3 kmh WSW 24.8 mph39.9 kmh 30.10 in1019.3 mb 0.00 in0.0 mm 0.00 in0.0 mm 0.00 in0.0 mm
05:55 AM 58.3°F14.6°C 43.7°F6.5°C 58% 15.8 mph WSW25.4 kmh WSW 26.8 mph43.1 kmh 30.09 in1019.0 mb 0.00 in0.0 mm 0.00 in0.0 mm 0.00 in0.0 mm
06:00 AM 58.3°F14.6°C 43.7°F6.5°C 58% 16.3 mph WSW26.2 kmh WSW 20.1 mph32.3 kmh 30.09 in1019.0 mb 0.00 in0.0 mm 0.00 in0.0 mm 0.00 in0.0 mm
06:05 AM 58.0°F14.4°C 43.8°F6.6°C 59% 15.5 mph WSW24.9 kmh WSW 19.7 mph31.7 kmh 30.09 in1019.0 mb 0.00 in0.0 mm 0.00 in0.0 mm 0.00 in0.0 mm
06:10 AM 57.9°F14.4°C 43.6°F6.4°C 59% 13.4 mph WSW21.6 kmh WSW 13.6 mph21.9 kmh 30.10 in1019.3 mb 0.00 in0.0 mm 0.00 in0.0 mm 0.00 in0.0 mm
06:15 AM 57.7°F14.3°C 43.7°F6.5°C 60% 11.7 mph WSW18.8 kmh WSW 13.4 mph21.6 kmh 30.10 in1019.3 mb 0.00 in0.0 mm 0.00 in0.0 mm 0.00 in0.0 mm
06:20 AM 57.6°F14.2°C 43.8°F6.6°C 60% 7.4 mph WSW11.9 kmh WSW 18.1 mph29.1 kmh 30.10 in1019.3 mb 0.00 in0.0 mm 0.00 in0.0 mm 0.00 in0.0 mm
06:25 AM 57.6°F14.2°C 43.8°F6.6°C 60% 8.2 mph WSW13.2 kmh WSW 16.8 mph27.0 kmh 30.10 in1019.3 mb 0.00 in0.0 mm 0.00 in0.0 mm 0.00 in0.0 mm
06:30 AM 57.4°F14.1°C 43.6°F6.4°C 60% 10.3 mph WSW16.6 kmh WSW 14.8 mph23.8 kmh 30.09 in1019.0 mb 0.00 in0.0 mm 0.00 in0.0 mm 0.00 in0.0 mm
06:35 AM 57.4°F14.1°C 43.6°F6.4°C 60% 9.8 mph WSW15.8 kmh WSW 13.6 mph21.9 kmh 30.09 in1019.0 mb 0.00 in0.0 mm 0.00 in0.0 mm 0.00 in0.0 mm
06:40 AM 57.5°F14.2°C 43.7°F6.5°C 60% 8.5 mph WSW13.7 kmh WSW 18.1 mph29.1 kmh 30.09 in1019.0 mb 0.00 in0.0 mm 0.00 in0.0 mm 0.00 in0.0 mm
06:45 AM 57.6°F14.2°C 43.8°F6.6°C 60% 8.7 mph WSW14.0 kmh WSW 19.2 mph30.9 kmh 30.09 in1019.0 mb 0.00 in0.0 mm 0.00 in0.0 mm 0.00 in0.0 mm
06:50 AM 57.6°F14.2°C 43.8°F6.6°C 60% 9.2 mph WSW14.8 kmh WSW 13.0 mph20.9 kmh 30.09 in1019.0 mb 0.00 in0.0 mm 0.00 in0.0 mm 0.00 in0.0 mm
06:55 AM 57.6°F14.2°C 43.8°F6.6°C 60% 9.2 mph WSW14.8 kmh WSW 14.8 mph23.8 kmh 30.10 in1019.3 mb 0.00 in0.0 mm 0.00 in0.0 mm 0.00 in0.0 mm
07:00 AM 57.7°F14.3°C 43.9°F6.6°C 60% 9.2 mph WSW14.8 kmh WSW 17.9 mph28.8 kmh 30.10 in1019.3 mb 0.00 in0.0 mm 0.00 in0.0 mm 0.00 in0.0 mm
07:05 AM 57.8°F14.3°C 44.0°F6.7°C 60% 9.8 mph WSW15.8 kmh WSW 20.4 mph32.8 kmh 30.10 in1019.3 mb 0.00 in0.0 mm 0.00 in0.0 mm 0.00 in0.0 mm
07:10 AM 57.9°F14.4°C 44.1°F6.7°C 60% 11.4 mph WSW18.3 kmh WSW 20.1 mph32.3 kmh 30.10 in1019.3 mb 0.00 in0.0 mm 0.00 in0.0 mm 0.00 in0.0 mm
07:15 AM 57.9°F14.4°C 44.4°F6.9°C 61% 11.4 mph WSW18.3 kmh WSW 19.0 mph30.6 kmh 30.10 in1019.3 mb 0.00 in0.0 mm 0.00 in0.0 mm 0.00 in0.0 mm
07:20 AM 57.9°F14.4°C 44.1°F6.7°C 60% 11.4 mph WSW18.3 kmh WSW 20.1 mph32.3 kmh 30.10 in1019.3 mb 0.00 in0.0 mm 0.00 in0.0 mm 0.00 in0.0 mm
07:25 AM 58.0°F14.4°C 44.2°F6.8°C 60% 11.0 mph WSW17.7 kmh WSW 18.6 mph29.9 kmh 30.10 in1019.3 mb 0.00 in0.0 mm 0.00 in0.0 mm 0.00 in0.0 mm
07:30 AM 58.1°F14.5°C 44.3°F6.8°C 60% 10.1 mph WSW16.3 kmh WSW 20.1 mph32.3 kmh 30.10 in1019.3 mb 0.00 in0.0 mm 0.00 in0.0 mm 0.00 in0.0 mm
07:35 AM 58.1°F14.5°C 44.3°F6.8°C 60% 10.1 mph WSW16.3 kmh WSW 19.2 mph30.9 kmh 30.10 in1019.3 mb 0.00 in0.0 mm 0.00 in0.0 mm 0.00 in0.0 mm
07:40 AM 58.1°F14.5°C 44.3°F6.8°C 60% 10.1 mph WSW16.3 kmh WSW 20.1 mph32.3 kmh 30.11 in1019.6 mb 0.00 in0.0 mm 0.00 in0.0 mm 0.00 in0.0 mm
07:45 AM 58.0°F14.4°C 44.2°F6.8°C 60% 10.7 mph WSW17.2 kmh WSW 23.5 mph37.8 kmh 30.11 in1019.6 mb 0.00 in0.0 mm 0.00 in0.0 mm 0.00 in0.0 mm
07:50 AM 58.0°F14.4°C 44.6°F7.0°C 61% 12.3 mph WSW19.8 kmh WSW 24.8 mph39.9 kmh 30.11 in1019.6 mb 0.00 in0.0 mm 0.00 in0.0 mm 0.00 in0.0 mm
07:55 AM 58.0°F14.4°C 44.6°F7.0°C 61% 12.8 mph WSW20.6 kmh WSW 26.8 mph43.1 kmh 30.11 in1019.6 mb 0.00 in0.0 mm 0.00 in0.0 mm 0.00 in0.0 mm
08:00 AM 58.2°F14.6°C 44.3°F6.8°C 60% 14.1 mph WSW22.7 kmh WSW 21.9 mph35.2 kmh 30.11 in1019.6 mb 0.00 in0.0 mm 0.00 in0.0 mm 0.00 in0.0 mm
08:05 AM 58.3°F14.6°C 44.5°F6.9°C 60% 13.5 mph WSW21.7 kmh WSW 19.7 mph31.7 kmh 30.11 in1019.6 mb 0.00 in0.0 mm 0.00 in0.0 mm 0.00 in0.0 mm
08:10 AM 58.4°F14.7°C 44.6°F7.0°C 60% 11.9 mph W19.2 kmh W 19.7 mph31.7 kmh 30.11 in1019.6 mb 0.00 in0.0 mm 0.00 in0.0 mm 0.00 in0.0 mm
08:15 AM 58.5°F14.7°C 44.6°F7.0°C 60% 12.0 mph W19.3 kmh W 24.6 mph39.6 kmh 30.11 in1019.6 mb 0.00 in0.0 mm 0.00 in0.0 mm 0.00 in0.0 mm
08:20 AM 58.4°F14.7°C 44.6°F7.0°C 60% 12.3 mph W19.8 kmh W 25.7 mph41.4 kmh 30.11 in1019.6 mb 0.00 in0.0 mm 0.00 in0.0 mm 0.00 in0.0 mm
08:25 AM 58.5°F14.7°C 44.6°F7.0°C 60% 12.5 mph W20.1 kmh W 20.1 mph32.3 kmh 30.12 in1020.0 mb 0.00 in0.0 mm 0.00 in0.0 mm 0.00 in0.0 mm
08:30 AM 58.6°F14.8°C 44.4°F6.9°C 59% 13.0 mph W20.9 kmh W 23.7 mph38.1 kmh 30.12 in1020.0 mb 0.00 in0.0 mm 0.00 in0.0 mm 0.00 in0.0 mm
08:35 AM 58.8°F14.9°C 44.5°F6.9°C 59% 13.0 mph W20.9 kmh W 21.3 mph34.3 kmh 30.12 in1020.0 mb 0.00 in0.0 mm 0.00 in0.0 mm 0.00 in0.0 mm
08:40 AM 58.9°F14.9°C 44.6°F7.0°C 59% 13.0 mph W20.9 kmh W 17.4 mph28.0 kmh 30.12 in1020.0 mb 0.00 in0.0 mm 0.00 in0.0 mm 0.00 in0.0 mm
08:45 AM 59.0°F15.0°C 44.7°F7.1°C 59% 12.3 mph W19.8 kmh W 21.3 mph34.3 kmh 30.12 in1020.0 mb 0.00 in0.0 mm 0.00 in0.0 mm 0.00 in0.0 mm
08:50 AM 59.1°F15.1°C 44.8°F7.1°C 59% 10.7 mph W17.2 kmh W 28.4 mph45.7 kmh 30.12 in1020.0 mb 0.00 in0.0 mm 0.00 in0.0 mm 0.00 in0.0 mm
08:55 AM 59.2°F15.1°C 44.8°F7.1°C 59% 11.8 mph W19.0 kmh W 22.4 mph36.0 kmh 30.13 in1020.3 mb 0.00 in0.0 mm 0.00 in0.0 mm 0.00 in0.0 mm
09:00 AM 59.2°F15.1°C 44.9°F7.2°C 59% 14.5 mph W23.3 kmh W 20.4 mph32.8 kmh 30.13 in1020.3 mb 0.00 in0.0 mm 0.00 in0.0 mm 0.00 in0.0 mm
09:05 AM 59.2°F15.1°C 44.9°F7.2°C 59% 13.8 mph W22.2 kmh W 22.4 mph36.0 kmh 30.13 in1020.3 mb 0.00 in0.0 mm 0.00 in0.0 mm 0.00 in0.0 mm
09:10 AM 59.3°F15.2°C 45.0°F7.2°C 59% 11.9 mph W19.2 kmh W 26.4 mph42.5 kmh 30.13 in1020.3 mb 0.00 in0.0 mm 0.00 in0.0 mm 0.00 in0.0 mm
09:15 AM 59.5°F15.3°C 44.8°F7.1°C 58% 12.3 mph W19.8 kmh W 23.5 mph37.8 kmh 30.14 in1020.7 mb 0.00 in0.0 mm 0.00 in0.0 mm 0.00 in0.0 mm
09:20 AM 59.6°F15.3°C 44.8°F7.1°C 58% 13.4 mph W21.6 kmh W 20.1 mph32.3 kmh 30.14 in1020.7 mb 0.00 in0.0 mm 0.00 in0.0 mm 0.00 in0.0 mm
09:25 AM 59.7°F15.4°C 44.9°F7.2°C 58% 13.3 mph W21.4 kmh W 20.8 mph33.5 kmh 30.14 in1020.7 mb 0.00 in0.0 mm 0.00 in0.0 mm 0.00 in0.0 mm
09:30 AM 59.9°F15.5°C 45.1°F7.3°C 58% 13.0 mph W20.9 kmh W 15.2 mph24.5 kmh 30.14 in1020.7 mb 0.00 in0.0 mm 0.00 in0.0 mm 0.00 in0.0 mm
09:35 AM 60.1°F15.6°C 45.3°F7.4°C 58% 11.8 mph W19.0 kmh W 18.1 mph29.1 kmh 30.14 in1020.7 mb 0.00 in0.0 mm 0.00 in0.0 mm 0.00 in0.0 mm
09:40 AM 60.3°F15.7°C 45.3°F7.4°C 58% 8.7 mph W14.0 kmh W 20.8 mph33.5 kmh 30.14 in1020.7 mb 0.00 in0.0 mm 0.00 in0.0 mm 0.00 in0.0 mm
09:45 AM 60.5°F15.8°C 45.1°F7.3°C 57% 9.6 mph W15.4 kmh W 20.8 mph33.5 kmh 30.14 in1020.7 mb 0.00 in0.0 mm 0.00 in0.0 mm 0.00 in0.0 mm
09:50 AM 60.6°F15.9°C 45.3°F7.4°C 57% 11.9 mph WSW19.2 kmh WSW 21.9 mph35.2 kmh 30.14 in1020.7 mb 0.00 in0.0 mm 0.00 in0.0 mm 0.00 in0.0 mm
09:55 AM 60.6°F15.9°C 45.3°F7.4°C 57% 12.3 mph WSW19.8 kmh WSW 21.3 mph34.3 kmh 30.14 in1020.7 mb 0.00 in0.0 mm 0.00 in0.0 mm 0.00 in0.0 mm
10:00 AM 60.7°F15.9°C 45.4°F7.4°C 57% 13.4 mph WSW21.6 kmh WSW 21.5 mph34.6 kmh 30.14 in1020.7 mb 0.00 in0.0 mm 0.00 in0.0 mm 0.00 in0.0 mm
10:05 AM 61.0°F16.1°C 45.2°F7.3°C 56% 13.5 mph WSW21.7 kmh WSW 20.1 mph32.3 kmh 30.14 in1020.7 mb 0.00 in0.0 mm 0.00 in0.0 mm 0.00 in0.0 mm
10:10 AM 61.2°F16.2°C 45.3°F7.4°C 56% 13.6 mph WSW21.9 kmh WSW 21.5 mph34.6 kmh 30.14 in1020.7 mb 0.00 in0.0 mm 0.00 in0.0 mm 0.00 in0.0 mm
10:15 AM 61.4°F16.3°C 45.4°F7.4°C 56% 13.3 mph WSW21.4 kmh WSW 18.6 mph29.9 kmh 30.14 in1020.7 mb 0.00 in0.0 mm 0.00 in0.0 mm 0.00 in0.0 mm
10:20 AM 61.6°F16.4°C 45.3°F7.4°C 55% 12.3 mph W19.8 kmh W 18.6 mph29.9 kmh 30.14 in1020.7 mb 0.00 in0.0 mm 0.00 in0.0 mm 0.00 in0.0 mm
10:25 AM 61.9°F16.6°C 45.4°F7.4°C 55% 11.7 mph WSW18.8 kmh WSW 17.4 mph28.0 kmh 30.14 in1020.7 mb 0.00 in0.0 mm 0.00 in0.0 mm 0.00 in0.0 mm
10:30 AM 62.1°F16.7°C 45.2°F7.3°C 54% 10.1 mph WSW16.3 kmh WSW 18.6 mph29.9 kmh 30.14 in1020.7 mb 0.00 in0.0 mm 0.00 in0.0 mm 0.00 in0.0 mm
10:35 AM 62.4°F16.9°C 45.2°F7.3°C 53% 10.1 mph WSW16.3 kmh WSW 17.4 mph28.0 kmh 30.14 in1020.7 mb 0.00 in0.0 mm 0.00 in0.0 mm 0.00 in0.0 mm
10:40 AM 62.7°F17.1°C 45.2°F7.3°C 53% 10.3 mph W16.6 kmh W 14.8 mph23.8 kmh 30.14 in1020.7 mb 0.00 in0.0 mm 0.00 in0.0 mm 0.00 in0.0 mm
10:45 AM 63.0°F17.2°C 45.1°F7.3°C 52% 9.8 mph W15.8 kmh W 19.7 mph31.7 kmh 30.14 in1020.7 mb 0.00 in0.0 mm 0.00 in0.0 mm 0.00 in0.0 mm
10:50 AM 63.1°F17.3°C 44.7°F7.1°C 51% 8.5 mph WSW13.7 kmh WSW 15.7 mph25.3 kmh 30.14 in1020.7 mb 0.00 in0.0 mm 0.00 in0.0 mm 0.00 in0.0 mm
10:55 AM 63.3°F17.4°C 44.8°F7.1°C 51% 8.7 mph WSW14.0 kmh WSW 20.1 mph32.3 kmh 30.14 in1020.7 mb 0.00 in0.0 mm 0.00 in0.0 mm 0.00 in0.0 mm
11:00 AM 63.4°F17.4°C 44.5°F6.9°C 50% 9.2 mph W14.8 kmh W 16.8 mph27.0 kmh 30.14 in1020.7 mb 0.00 in0.0 mm 0.00 in0.0 mm 0.00 in0.0 mm
11:05 AM 63.6°F17.6°C 44.8°F7.1°C 50% 9.4 mph W15.1 kmh W 17.0 mph27.4 kmh 30.14 in1020.7 mb 0.00 in0.0 mm 0.00 in0.0 mm 0.00 in0.0 mm
11:10 AM 63.8°F17.7°C 44.8°F7.1°C 50% 10.1 mph W16.3 kmh W 17.0 mph27.4 kmh 30.14 in1020.7 mb 0.00 in0.0 mm 0.00 in0.0 mm 0.00 in0.0 mm
11:15 AM 63.9°F17.7°C 44.9°F7.2°C 50% 10.1 mph W16.3 kmh W 16.8 mph27.0 kmh 30.14 in1020.7 mb 0.00 in0.0 mm 0.00 in0.0 mm 0.00 in0.0 mm
11:20 AM 64.2°F17.9°C 45.1°F7.3°C 50% 10.1 mph WSW16.3 kmh WSW 21.5 mph34.6 kmh 30.14 in1020.7 mb 0.00 in0.0 mm 0.00 in0.0 mm 0.00 in0.0 mm
11:25 AM 64.2°F17.9°C 44.9°F7.2°C 50% 10.4 mph WSW16.7 kmh WSW 19.0 mph30.6 kmh 30.14 in1020.7 mb 0.00 in0.0 mm 0.00 in0.0 mm 0.00 in0.0 mm
11:30 AM 64.2°F17.9°C 44.9°F7.2°C 50% 11.4 mph WSW18.3 kmh WSW 18.1 mph29.1 kmh 30.14 in1020.7 mb 0.00 in0.0 mm 0.00 in0.0 mm 0.00 in0.0 mm
11:35 AM 64.5°F18.1°C 45.1°F7.3°C 49% 11.1 mph WSW17.9 kmh WSW 17.0 mph27.4 kmh 30.14 in1020.7 mb 0.00 in0.0 mm 0.00 in0.0 mm 0.00 in0.0 mm
11:40 AM 64.8°F18.2°C 45.1°F7.3°C 49% 10.3 mph W16.6 kmh W 19.7 mph31.7 kmh 30.14 in1020.7 mb 0.00 in0.0 mm 0.00 in0.0 mm 0.00 in0.0 mm
11:45 AM 65.0°F18.3°C 44.8°F7.1°C 48% 10.1 mph W16.3 kmh W 15.9 mph25.6 kmh 30.14 in1020.7 mb 0.00 in0.0 mm 0.00 in0.0 mm 0.00 in0.0 mm
11:50 AM 65.1°F18.4°C 44.9°F7.2°C 48% 9.6 mph W15.4 kmh W 13.6 mph21.9 kmh 30.14 in1020.7 mb 0.00 in0.0 mm 0.00 in0.0 mm 0.00 in0.0 mm
11:55 AM 65.4°F18.6°C 45.0°F7.2°C 48% 8.9 mph W14.3 kmh W 12.3 mph19.8 kmh 30.13 in1020.3 mb 0.00 in0.0 mm 0.00 in0.0 mm 0.00 in0.0 mm
12:00 PM 65.6°F18.7°C 44.9°F7.2°C 47% 6.9 mph W11.1 kmh W 16.3 mph26.2 kmh 30.13 in1020.3 mb 0.00 in0.0 mm 0.00 in0.0 mm 0.00 in0.0 mm
12:05 PM 65.8°F18.8°C 45.0°F7.2°C 47% 7.2 mph W11.6 kmh W 12.5 mph20.1 kmh 30.13 in1020.3 mb 0.00 in0.0 mm 0.00 in0.0 mm 0.00 in0.0 mm
12:10 PM 66.0°F18.9°C 44.8°F7.1°C 46% 8.1 mph WNW13.0 kmh WNW 14.5 mph23.3 kmh 30.13 in1020.3 mb 0.00 in0.0 mm 0.00 in0.0 mm 0.00 in0.0 mm
12:15 PM 66.2°F19.0°C 44.5°F6.9°C 45% 8.2 mph W13.2 kmh W 14.5 mph23.3 kmh 30.13 in1020.3 mb 0.00 in0.0 mm 0.00 in0.0 mm 0.00 in0.0 mm
12:20 PM 66.4°F19.1°C 44.5°F6.9°C 45% 8.7 mph W14.0 kmh W 13.6 mph21.9 kmh 30.13 in1020.3 mb 0.00 in0.0 mm 0.00 in0.0 mm 0.00 in0.0 mm
12:25 PM 66.7°F19.3°C 44.6°F7.0°C 45% 8.1 mph W13.0 kmh W 10.7 mph17.2 kmh 30.12 in1020.0 mb 0.00 in0.0 mm 0.00 in0.0 mm 0.00 in0.0 mm
12:30 PM 67.0°F19.4°C 44.6°F7.0°C 45% 6.5 mph W10.5 kmh W 11.4 mph18.3 kmh 30.12 in1020.0 mb 0.00 in0.0 mm 0.00 in0.0 mm 0.00 in0.0 mm
12:35 PM 67.4°F19.7°C 44.5°F6.9°C 44% 6.6 mph W10.6 kmh W 10.7 mph17.2 kmh 30.12 in1020.0 mb 0.00 in0.0 mm 0.00 in0.0 mm 0.00 in0.0 mm
12:40 PM 67.6°F19.8°C 43.9°F6.6°C 42% 6.9 mph WSW11.1 kmh WSW 8.7 mph14.0 kmh 30.12 in1020.0 mb 0.00 in0.0 mm 0.00 in0.0 mm 0.00 in0.0 mm
12:45 PM 67.9°F19.9°C 43.6°F6.4°C 42% 6.6 mph WSW10.6 kmh WSW 8.7 mph14.0 kmh 30.11 in1019.6 mb 0.00 in0.0 mm 0.00 in0.0 mm 0.00 in0.0 mm
12:50 PM 68.3°F20.2°C 43.4°F6.3°C 41% 5.8 mph W9.3 kmh W 9.6 mph15.4 kmh 30.11 in1019.6 mb 0.00 in0.0 mm 0.00 in0.0 mm 0.00 in0.0 mm
12:55 PM 68.6°F20.3°C 43.2°F6.2°C 40% 5.5 mph W8.9 kmh W 9.2 mph14.8 kmh 30.11 in1019.6 mb 0.00 in0.0 mm 0.00 in0.0 mm 0.00 in0.0 mm
01:00 PM 68.8°F20.4°C 43.4°F6.3°C 40% 4.7 mph W7.6 kmh W 8.7 mph14.0 kmh 30.11 in1019.6 mb 0.00 in0.0 mm 0.00 in0.0 mm 0.00 in0.0 mm
01:05 PM 69.0°F20.6°C 43.3°F6.3°C 39% 5.2 mph W8.4 kmh W 10.7 mph17.2 kmh 30.11 in1019.6 mb 0.00 in0.0 mm 0.00 in0.0 mm 0.00 in0.0 mm
01:10 PM 69.1°F20.6°C 43.8°F6.6°C 40% 6.5 mph W10.5 kmh W 8.1 mph13.0 kmh 30.10 in1019.3 mb 0.00 in0.0 mm 0.00 in0.0 mm 0.00 in0.0 mm
01:15 PM 69.2°F20.7°C 43.4°F6.3°C 39% 5.9 mph W9.5 kmh W 8.5 mph13.7 kmh 30.10 in1019.3 mb 0.00 in0.0 mm 0.00 in0.0 mm 0.00 in0.0 mm
01:20 PM 69.4°F20.8°C 43.3°F6.3°C 39% 4.3 mph WSW6.9 kmh WSW 6.9 mph11.1 kmh 30.10 in1019.3 mb 0.00 in0.0 mm 0.00 in0.0 mm 0.00 in0.0 mm
01:25 PM 69.5°F20.8°C 43.1°F6.2°C 38% 4.3 mph WSW6.9 kmh WSW 5.4 mph8.7 kmh 30.10 in1019.3 mb 0.00 in0.0 mm 0.00 in0.0 mm 0.00 in0.0 mm
01:30 PM 69.8°F21.0°C 43.0°F6.1°C 38% 4.3 mph WSW6.9 kmh WSW 7.4 mph11.9 kmh 30.09 in1019.0 mb 0.00 in0.0 mm 0.00 in0.0 mm 0.00 in0.0 mm
01:35 PM 70.2°F21.2°C 43.4°F6.3°C 38% 4.3 mph SW6.9 kmh SW 6.3 mph10.1 kmh 30.09 in1019.0 mb 0.00 in0.0 mm 0.00 in0.0 mm 0.00 in0.0 mm
01:40 PM 70.6°F21.4°C 43.0°F6.1°C 37% 4.3 mph SW6.9 kmh SW 5.4 mph8.7 kmh 30.09 in1019.0 mb 0.00 in0.0 mm 0.00 in0.0 mm 0.00 in0.0 mm
01:45 PM 70.7°F21.5°C 43.0°F6.1°C 37% 4.2 mph SW6.8 kmh SW 7.6 mph12.2 kmh 30.09 in1019.0 mb 0.00 in0.0 mm 0.00 in0.0 mm 0.00 in0.0 mm
01:50 PM 71.0°F21.7°C 42.7°F5.9°C 36% 4.0 mph SW6.4 kmh SW 7.4 mph11.9 kmh 30.09 in1019.0 mb 0.00 in0.0 mm 0.00 in0.0 mm 0.00 in0.0 mm
01:55 PM 71.2°F21.8°C 42.8°F6.0°C 36% 4.1 mph SW6.6 kmh SW 6.3 mph10.1 kmh 30.08 in1018.6 mb 0.00 in0.0 mm 0.00 in0.0 mm 0.00 in0.0 mm
02:00 PM 71.2°F21.8°C 42.4°F5.8°C 35% 4.3 mph SW6.9 kmh SW 6.3 mph10.1 kmh 30.08 in1018.6 mb 0.00 in0.0 mm 0.00 in0.0 mm 0.00 in0.0 mm
02:05 PM 71.1°F21.7°C 42.1°F5.6°C 35% 3.9 mph SW6.3 kmh SW 5.8 mph9.3 kmh 30.08 in1018.6 mb 0.00 in0.0 mm 0.00 in0.0 mm 0.00 in0.0 mm
02:10 PM 71.2°F21.8°C 42.1°F5.6°C 35% 3.1 mph SW5.0 kmh SW 7.4 mph11.9 kmh 30.07 in1018.3 mb 0.00 in0.0 mm 0.00 in0.0 mm 0.00 in0.0 mm
02:15 PM 71.3°F21.8°C 43.4°F6.3°C 37% 3.3 mph SW5.3 kmh SW 5.1 mph8.2 kmh 30.07 in1018.3 mb 0.00 in0.0 mm 0.00 in0.0 mm 0.00 in0.0 mm
02:20 PM 71.4°F21.9°C 44.8°F7.1°C 38% 3.6 mph SW5.8 kmh SW 5.8 mph9.3 kmh 30.07 in1018.3 mb 0.00 in0.0 mm 0.00 in0.0 mm 0.00 in0.0 mm
02:25 PM 71.4°F21.9°C 45.3°F7.4°C 39% 3.6 mph WSW5.8 kmh WSW 6.3 mph10.1 kmh 30.07 in1018.3 mb 0.00 in0.0 mm 0.00 in0.0 mm 0.00 in0.0 mm
02:30 PM 71.5°F21.9°C 46.2°F7.9°C 41% 3.6 mph WSW5.8 kmh WSW 6.9 mph11.1 kmh 30.06 in1017.9 mb 0.00 in0.0 mm 0.00 in0.0 mm 0.00 in0.0 mm
02:35 PM 71.2°F21.8°C 47.3°F8.5°C 43% 3.5 mph SW5.6 kmh SW 6.5 mph10.5 kmh 30.06 in1017.9 mb 0.00 in0.0 mm 0.00 in0.0 mm 0.00 in0.0 mm
02:40 PM 70.1°F21.2°C 47.3°F8.5°C 44% 3.1 mph S5.0 kmh S 10.1 mph16.3 kmh 30.06 in1017.9 mb 0.00 in0.0 mm 0.00 in0.0 mm 0.00 in0.0 mm
02:45 PM 68.7°F20.4°C 47.0°F8.3°C 46% 3.7 mph SSE6.0 kmh SSE 7.6 mph12.2 kmh 30.06 in1017.9 mb 0.00 in0.0 mm 0.00 in0.0 mm 0.00 in0.0 mm
02:50 PM 68.6°F20.3°C 47.3°F8.5°C 47% 5.1 mph SE8.2 kmh SE 7.4 mph11.9 kmh 30.06 in1017.9 mb 0.00 in0.0 mm 0.00 in0.0 mm 0.00 in0.0 mm
02:55 PM 68.7°F20.4°C 47.2°F8.4°C 46% 4.8 mph SE7.7 kmh SE 10.3 mph16.6 kmh 30.06 in1017.9 mb 0.00 in0.0 mm 0.00 in0.0 mm 0.00 in0.0 mm
03:00 PM 67.5°F19.7°C 47.2°F8.4°C 48% 4.0 mph SE6.4 kmh SE 11.2 mph18.0 kmh 30.06 in1017.9 mb 0.00 in0.0 mm 0.00 in0.0 mm 0.00 in0.0 mm
03:05 PM 66.8°F19.3°C 47.3°F8.5°C 50% 5.0 mph E8.0 kmh E 10.1 mph16.3 kmh 30.06 in1017.9 mb 0.00 in0.0 mm 0.00 in0.0 mm 0.00 in0.0 mm
03:10 PM 66.6°F19.2°C 47.3°F8.5°C 50% 7.4 mph ENE11.9 kmh ENE 12.3 mph19.8 kmh 30.05 in1017.6 mb 0.00 in0.0 mm 0.00 in0.0 mm 0.00 in0.0 mm
03:15 PM 66.5°F19.2°C 47.4°F8.6°C 50% 7.6 mph ENE12.2 kmh ENE 11.4 mph18.3 kmh 30.05 in1017.6 mb 0.00 in0.0 mm 0.00 in0.0 mm 0.00 in0.0 mm
03:20 PM 66.5°F19.2°C 47.5°F8.6°C 50% 8.1 mph ENE13.0 kmh ENE 8.1 mph13.0 kmh 30.05 in1017.6 mb 0.00 in0.0 mm 0.00 in0.0 mm 0.00 in0.0 mm
03:25 PM 66.6°F19.2°C 47.5°F8.6°C 50% 7.6 mph ENE12.2 kmh ENE 9.6 mph15.4 kmh 30.05 in1017.6 mb 0.00 in0.0 mm 0.00 in0.0 mm 0.00 in0.0 mm
03:30 PM 66.6°F19.2°C 47.7°F8.7°C 51% 6.5 mph ENE10.5 kmh ENE 8.7 mph14.0 kmh 30.05 in1017.6 mb 0.00 in0.0 mm 0.00 in0.0 mm 0.00 in0.0 mm
03:35 PM 66.5°F19.2°C 47.8°F8.8°C 51% 6.6 mph ENE10.6 kmh ENE 8.7 mph14.0 kmh 30.05 in1017.6 mb 0.00 in0.0 mm 0.00 in0.0 mm 0.00 in0.0 mm
03:40 PM 66.2°F19.0°C 47.9°F8.8°C 52% 6.9 mph ENE11.1 kmh ENE 10.1 mph16.3 kmh 30.05 in1017.6 mb 0.00 in0.0 mm 0.00 in0.0 mm 0.00 in0.0 mm
03:45 PM 66.0°F18.9°C 47.9°F8.8°C 52% 7.1 mph ENE11.4 kmh ENE 10.3 mph16.6 kmh 30.05 in1017.6 mb 0.00 in0.0 mm 0.00 in0.0 mm 0.00 in0.0 mm
03:50 PM 65.8°F18.8°C 48.0°F8.9°C 53% 7.4 mph ENE11.9 kmh ENE 9.6 mph15.4 kmh 30.05 in1017.6 mb 0.00 in0.0 mm 0.00 in0.0 mm 0.00 in0.0 mm
03:55 PM 65.7°F18.7°C 48.5°F9.2°C 54% 7.4 mph ENE11.9 kmh ENE 10.1 mph16.3 kmh 30.05 in1017.6 mb 0.00 in0.0 mm 0.00 in0.0 mm 0.00 in0.0 mm
04:00 PM 65.7°F18.7°C 48.8°F9.3°C 55% 7.4 mph ENE11.9 kmh ENE 9.2 mph14.8 kmh 30.05 in1017.6 mb 0.00 in0.0 mm 0.00 in0.0 mm 0.00 in0.0 mm
04:05 PM 65.7°F18.7°C 49.1°F9.5°C 55% 7.1 mph ENE11.4 kmh ENE 8.7 mph14.0 kmh 30.05 in1017.6 mb 0.00 in0.0 mm 0.00 in0.0 mm 0.00 in0.0 mm
04:10 PM 65.7°F18.7°C 49.4°F9.7°C 56% 6.3 mph ENE10.1 kmh ENE 9.2 mph14.8 kmh 30.05 in1017.6 mb 0.00 in0.0 mm 0.00 in0.0 mm 0.00 in0.0 mm
04:15 PM 65.5°F18.6°C 49.4°F9.7°C 56% 6.1 mph ENE9.8 kmh ENE 9.2 mph14.8 kmh 30.05 in1017.6 mb 0.00 in0.0 mm 0.00 in0.0 mm 0.00 in0.0 mm
04:20 PM 65.2°F18.4°C 49.1°F9.5°C 56% 5.8 mph ENE9.3 kmh ENE 9.2 mph14.8 kmh 30.05 in1017.6 mb 0.00 in0.0 mm 0.00 in0.0 mm 0.00 in0.0 mm
04:25 PM 64.9°F18.3°C 49.3°F9.6°C 57% 6.1 mph ENE9.8 kmh ENE 8.7 mph14.0 kmh 30.05 in1017.6 mb 0.00 in0.0 mm 0.00 in0.0 mm 0.00 in0.0 mm
04:30 PM 64.8°F18.2°C 49.6°F9.8°C 58% 6.9 mph ENE11.1 kmh ENE 8.5 mph13.7 kmh 30.05 in1017.6 mb 0.00 in0.0 mm 0.00 in0.0 mm 0.00 in0.0 mm
04:35 PM 64.8°F18.2°C 50.5°F10.3°C 60% 6.6 mph ENE10.6 kmh ENE 8.5 mph13.7 kmh 30.05 in1017.6 mb 0.00 in0.0 mm 0.00 in0.0 mm 0.00 in0.0 mm
04:40 PM 64.6°F18.1°C 51.0°F10.6°C 61% 5.8 mph ENE9.3 kmh ENE 7.6 mph12.2 kmh 30.05 in1017.6 mb 0.00 in0.0 mm 0.00 in0.0 mm 0.00 in0.0 mm
04:45 PM 64.6°F18.1°C 51.2°F10.7°C 62% 5.8 mph ENE9.3 kmh ENE 7.4 mph11.9 kmh 30.05 in1017.6 mb 0.00 in0.0 mm 0.00 in0.0 mm 0.00 in0.0 mm
04:50 PM 64.3°F17.9°C 51.1°F10.6°C 62% 5.8 mph ENE9.3 kmh ENE 6.9 mph11.1 kmh 30.05 in1017.6 mb 0.00 in0.0 mm 0.00 in0.0 mm 0.00 in0.0 mm
04:55 PM 64.2°F17.9°C 51.2°F10.7°C 63% 5.7 mph ENE9.2 kmh ENE 7.4 mph11.9 kmh 30.05 in1017.6 mb 0.00 in0.0 mm 0.00 in0.0 mm 0.00 in0.0 mm
05:00 PM 64.2°F17.9°C 51.6°F10.9°C 64% 5.4 mph ENE8.7 kmh ENE 6.3 mph10.1 kmh 30.05 in1017.6 mb 0.00 in0.0 mm 0.00 in0.0 mm 0.00 in0.0 mm
05:05 PM 64.1°F17.8°C 51.9°F11.1°C 65% 5.2 mph ENE8.4 kmh ENE 6.3 mph10.1 kmh 30.05 in1017.6 mb 0.00 in0.0 mm 0.00 in0.0 mm 0.00 in0.0 mm
05:10 PM 63.9°F17.7°C 52.2°F11.2°C 66% 4.7 mph ENE7.6 kmh ENE 6.3 mph10.1 kmh 30.05 in1017.6 mb 0.00 in0.0 mm 0.00 in0.0 mm 0.00 in0.0 mm
05:15 PM 63.7°F17.6°C 52.1°F11.2°C 66% 4.7 mph ENE7.6 kmh ENE 6.3 mph10.1 kmh 30.05 in1017.6 mb 0.00 in0.0 mm 0.00 in0.0 mm 0.00 in0.0 mm
05:20 PM 63.3°F17.4°C 51.8°F11.0°C 66% 4.7 mph ENE7.6 kmh ENE 6.5 mph10.5 kmh 30.05 in1017.6 mb 0.00 in0.0 mm 0.00 in0.0 mm 0.00 in0.0 mm
05:25 PM 63.1°F17.3°C 51.9°F11.1°C 67% 4.6 mph ENE7.4 kmh ENE 5.8 mph9.3 kmh 30.05 in1017.6 mb 0.00 in0.0 mm 0.00 in0.0 mm 0.00 in0.0 mm
05:30 PM 62.8°F17.1°C 52.1°F11.2°C 68% 4.3 mph ENE6.9 kmh ENE 6.5 mph10.5 kmh 30.05 in1017.6 mb 0.00 in0.0 mm 0.00 in0.0 mm 0.00 in0.0 mm
05:35 PM 62.5°F16.9°C 52.1°F11.2°C 69% 4.5 mph ENE7.2 kmh ENE 6.5 mph10.5 kmh 30.05 in1017.6 mb 0.00 in0.0 mm 0.00 in0.0 mm 0.00 in0.0 mm
05:40 PM 62.3°F16.8°C 52.4°F11.3°C 70% 5.1 mph ENE8.2 kmh ENE 6.3 mph10.1 kmh 30.05 in1017.6 mb 0.00 in0.0 mm 0.00 in0.0 mm 0.00 in0.0 mm
05:45 PM 62.2°F16.8°C 52.6°F11.4°C 71% 4.9 mph ENE7.9 kmh ENE 5.1 mph8.2 kmh 30.04 in1017.3 mb 0.00 in0.0 mm 0.00 in0.0 mm 0.00 in0.0 mm
05:50 PM 62.0°F16.7°C 52.5°F11.4°C 71% 4.3 mph ENE6.9 kmh ENE 5.4 mph8.7 kmh 30.04 in1017.3 mb 0.00 in0.0 mm 0.00 in0.0 mm 0.00 in0.0 mm
05:55 PM 61.7°F16.5°C 52.5°F11.4°C 72% 4.2 mph NE6.8 kmh NE 5.4 mph8.7 kmh 30.05 in1017.6 mb 0.00 in0.0 mm 0.00 in0.0 mm 0.00 in0.0 mm
06:00 PM 61.5°F16.4°C 52.6°F11.4°C 72% 4.0 mph NE6.4 kmh NE 5.1 mph8.2 kmh 30.05 in1017.6 mb 0.00 in0.0 mm 0.00 in0.0 mm 0.00 in0.0 mm
06:05 PM 61.4°F16.3°C 52.7°F11.5°C 73% 3.8 mph NE6.1 kmh NE 4.7 mph7.6 kmh 30.05 in1017.6 mb 0.00 in0.0 mm 0.00 in0.0 mm 0.00 in0.0 mm
06:10 PM 61.2°F16.2°C 52.9°F11.6°C 74% 3.1 mph NE5.0 kmh NE 4.7 mph7.6 kmh 30.05 in1017.6 mb 0.00 in0.0 mm 0.00 in0.0 mm 0.00 in0.0 mm
06:15 PM 61.0°F16.1°C 52.9°F11.6°C 75% 3.1 mph NE5.0 kmh NE 5.4 mph8.7 kmh 30.05 in1017.6 mb 0.00 in0.0 mm 0.00 in0.0 mm 0.00 in0.0 mm
06:20 PM 60.6°F15.9°C 52.8°F11.6°C 75% 3.1 mph NE5.0 kmh NE 5.1 mph8.2 kmh 30.05 in1017.6 mb 0.00 in0.0 mm 0.00 in0.0 mm 0.00 in0.0 mm
06:25 PM 60.5°F15.8°C 52.9°F11.6°C 76% 3.1 mph NE5.0 kmh NE 4.7 mph7.6 kmh 30.05 in1017.6 mb 0.00 in0.0 mm 0.00 in0.0 mm 0.00 in0.0 mm
06:30 PM 60.4°F15.8°C 52.8°F11.6°C 76% 3.1 mph NE5.0 kmh NE 3.1 mph5.0 kmh 30.05 in1017.6 mb 0.00 in0.0 mm 0.00 in0.0 mm 0.00 in0.0 mm
06:35 PM 60.4°F15.8°C 52.8°F11.6°C 76% 2.6 mph NE4.2 kmh NE 3.1 mph5.0 kmh 30.05 in1017.6 mb 0.00 in0.0 mm 0.00 in0.0 mm 0.00 in0.0 mm
06:40 PM 60.4°F15.8°C 52.8°F11.6°C 76% 1.3 mph NE2.1 kmh NE 3.6 mph5.8 kmh 30.05 in1017.6 mb 0.00 in0.0 mm 0.00 in0.0 mm 0.00 in0.0 mm
06:45 PM 60.4°F15.8°C 52.8°F11.6°C 76% 1.7 mph NNE2.7 kmh NNE 4.0 mph6.4 kmh 30.05 in1017.6 mb 0.00 in0.0 mm 0.00 in0.0 mm 0.00 in0.0 mm
06:50 PM 60.3°F15.7°C 52.3°F11.3°C 75% 2.5 mph NNW4.0 kmh NNW 4.3 mph6.9 kmh 30.05 in1017.6 mb 0.00 in0.0 mm 0.00 in0.0 mm 0.00 in0.0 mm
06:55 PM 60.1°F15.6°C 52.2°F11.2°C 75% 2.6 mph N4.2 kmh N 4.3 mph6.9 kmh 30.05 in1017.6 mb 0.00 in0.0 mm 0.00 in0.0 mm 0.00 in0.0 mm
07:00 PM 60.1°F15.6°C 52.1°F11.2°C 75% 2.9 mph N4.7 kmh N 4.7 mph7.6 kmh 30.04 in1017.3 mb 0.00 in0.0 mm 0.00 in0.0 mm 0.00 in0.0 mm
07:05 PM 59.8°F15.4°C 51.6°F10.9°C 74% 3.0 mph N4.8 kmh N 5.4 mph8.7 kmh 30.04 in1017.3 mb 0.00 in0.0 mm 0.00 in0.0 mm 0.00 in0.0 mm
07:10 PM 59.7°F15.4°C 51.4°F10.8°C 74% 3.1 mph N5.0 kmh N 4.3 mph6.9 kmh 30.05 in1017.6 mb 0.00 in0.0 mm 0.00 in0.0 mm 0.00 in0.0 mm
07:15 PM 59.7°F15.4°C 51.4°F10.8°C 74% 3.1 mph NNW5.0 kmh NNW 4.3 mph6.9 kmh 30.05 in1017.6 mb 0.00 in0.0 mm 0.00 in0.0 mm 0.00 in0.0 mm
07:20 PM 59.7°F15.4°C 51.1°F10.6°C 73% 2.9 mph NW4.7 kmh NW 4.0 mph6.4 kmh 30.05 in1017.6 mb 0.00 in0.0 mm 0.00 in0.0 mm 0.00 in0.0 mm
07:25 PM 59.7°F15.4°C 50.8°F10.4°C 72% 2.9 mph NW4.7 kmh NW 4.3 mph6.9 kmh 30.05 in1017.6 mb 0.00 in0.0 mm 0.00 in0.0 mm 0.00 in0.0 mm
07:30 PM 59.7°F15.4°C 50.6°F10.3°C 72% 2.9 mph NW4.7 kmh NW 4.3 mph6.9 kmh 30.05 in1017.6 mb 0.00 in0.0 mm 0.00 in0.0 mm 0.00 in0.0 mm
07:35 PM 59.5°F15.3°C 50.5°F10.3°C 72% 3.0 mph NW4.8 kmh NW 5.1 mph8.2 kmh 30.05 in1017.6 mb 0.00 in0.0 mm 0.00 in0.0 mm 0.00 in0.0 mm
07:40 PM 59.4°F15.2°C 50.3°F10.2°C 72% 3.1 mph WNW5.0 kmh WNW 5.8 mph9.3 kmh 30.05 in1017.6 mb 0.00 in0.0 mm 0.00 in0.0 mm 0.00 in0.0 mm
07:45 PM 59.2°F15.1°C 50.2°F10.1°C 72% 3.4 mph WNW5.5 kmh WNW 5.8 mph9.3 kmh 30.04 in1017.3 mb 0.00 in0.0 mm 0.00 in0.0 mm 0.00 in0.0 mm
07:50 PM 58.8°F14.9°C 49.9°F9.9°C 72% 4.3 mph W6.9 kmh W 6.5 mph10.5 kmh 30.04 in1017.3 mb 0.00 in0.0 mm 0.00 in0.0 mm 0.00 in0.0 mm
07:55 PM 58.6°F14.8°C 49.9°F9.9°C 73% 4.6 mph W7.4 kmh W 8.1 mph13.0 kmh 30.04 in1017.3 mb 0.00 in0.0 mm 0.00 in0.0 mm 0.00 in0.0 mm
08:00 PM 58.3°F14.6°C 49.6°F9.8°C 73% 5.4 mph WSW8.7 kmh WSW 10.1 mph16.3 kmh 30.04 in1017.3 mb 0.00 in0.0 mm 0.00 in0.0 mm 0.00 in0.0 mm
08:05 PM 58.0°F14.4°C 48.8°F9.3°C 71% 5.9 mph WSW9.5 kmh WSW 10.1 mph16.3 kmh 30.04 in1017.3 mb 0.00 in0.0 mm 0.00 in0.0 mm 0.00 in0.0 mm
08:10 PM 57.8°F14.3°C 48.3°F9.1°C 70% 7.4 mph WSW11.9 kmh WSW 8.5 mph13.7 kmh 30.04 in1017.3 mb 0.00 in0.0 mm 0.00 in0.0 mm 0.00 in0.0 mm
08:15 PM 57.7°F14.3°C 47.7°F8.7°C 69% 7.1 mph WSW11.4 kmh WSW 8.7 mph14.0 kmh 30.04 in1017.3 mb 0.00 in0.0 mm 0.00 in0.0 mm 0.00 in0.0 mm
08:20 PM 57.6°F14.2°C 47.0°F8.3°C 68% 6.3 mph WSW10.1 kmh WSW 13.0 mph20.9 kmh 30.04 in1017.3 mb 0.00 in0.0 mm 0.00 in0.0 mm 0.00 in0.0 mm
08:25 PM 57.7°F14.3°C 46.7°F8.2°C 67% 6.8 mph WSW10.9 kmh WSW 14.1 mph22.7 kmh 30.04 in1017.3 mb 0.00 in0.0 mm 0.00 in0.0 mm 0.00 in0.0 mm
08:30 PM 57.8°F14.3°C 46.5°F8.1°C 66% 8.1 mph WSW13.0 kmh WSW 14.1 mph22.7 kmh 30.04 in1017.3 mb 0.00 in0.0 mm 0.00 in0.0 mm 0.00 in0.0 mm
08:35 PM 58.0°F14.4°C 46.4°F8.0°C 65% 8.5 mph WSW13.7 kmh WSW 13.0 mph20.9 kmh 30.04 in1017.3 mb 0.00 in0.0 mm 0.00 in0.0 mm 0.00 in0.0 mm
08:40 PM 58.2°F14.6°C 46.5°F8.1°C 65% 9.6 mph W15.4 kmh W 15.9 mph25.6 kmh 30.04 in1017.3 mb 0.00 in0.0 mm 0.00 in0.0 mm 0.00 in0.0 mm
08:45 PM 58.3°F14.6°C 46.2°F7.9°C 64% 9.7 mph WSW15.6 kmh WSW 13.6 mph21.9 kmh 30.04 in1017.3 mb 0.00 in0.0 mm 0.00 in0.0 mm 0.00 in0.0 mm
08:50 PM 58.5°F14.7°C 46.3°F7.9°C 64% 10.1 mph WSW16.3 kmh WSW 14.8 mph23.8 kmh 30.04 in1017.3 mb 0.00 in0.0 mm 0.00 in0.0 mm 0.00 in0.0 mm
08:55 PM 58.5°F14.7°C 45.9°F7.7°C 63% 9.8 mph WSW15.8 kmh WSW 14.5 mph23.3 kmh 30.04 in1017.3 mb 0.00 in0.0 mm 0.00 in0.0 mm 0.00 in0.0 mm
09:00 PM 58.5°F14.7°C 45.9°F7.7°C 63% 9.2 mph W14.8 kmh W 15.9 mph25.6 kmh 30.04 in1017.3 mb 0.00 in0.0 mm 0.00 in0.0 mm 0.00 in0.0 mm
09:05 PM 58.3°F14.6°C 45.8°F7.7°C 63% 9.5 mph W15.3 kmh W 19.7 mph31.7 kmh 30.04 in1017.3 mb 0.00 in0.0 mm 0.00 in0.0 mm 0.00 in0.0 mm
09:10 PM 58.3°F14.6°C 45.7°F7.6°C 63% 10.3 mph W16.6 kmh W 19.0 mph30.6 kmh 30.04 in1017.3 mb 0.00 in0.0 mm 0.00 in0.0 mm 0.00 in0.0 mm
09:15 PM 58.3°F14.6°C 45.7°F7.6°C 63% 10.4 mph W16.7 kmh W 19.0 mph30.6 kmh 30.04 in1017.3 mb 0.00 in0.0 mm 0.00 in0.0 mm 0.00 in0.0 mm
09:20 PM 58.1°F14.5°C 45.8°F7.7°C 63% 10.7 mph W17.2 kmh W 23.0 mph37.0 kmh 30.04 in1017.3 mb 0.00 in0.0 mm 0.00 in0.0 mm 0.00 in0.0 mm
09:25 PM 58.0°F14.4°C 45.9°F7.7°C 64% 10.9 mph W17.5 kmh W 26.2 mph42.2 kmh 30.04 in1017.3 mb 0.00 in0.0 mm 0.00 in0.0 mm 0.00 in0.0 mm
09:30 PM 57.9°F14.4°C 45.8°F7.7°C 64% 11.4 mph W18.3 kmh W 21.3 mph34.3 kmh 30.04 in1017.3 mb 0.00 in0.0 mm 0.00 in0.0 mm 0.00 in0.0 mm
09:35 PM 57.9°F14.4°C 45.8°F7.7°C 64% 12.2 mph W19.6 kmh W 22.4 mph36.0 kmh 30.04 in1017.3 mb 0.00 in0.0 mm 0.00 in0.0 mm 0.00 in0.0 mm
09:40 PM 58.1°F14.5°C 46.0°F7.8°C 64% 14.1 mph W22.7 kmh W 24.8 mph39.9 kmh 30.04 in1017.3 mb 0.00 in0.0 mm 0.00 in0.0 mm 0.00 in0.0 mm
09:45 PM 58.1°F14.5°C 46.0°F7.8°C 64% 14.6 mph W23.5 kmh W 25.3 mph40.7 kmh 30.04 in1017.3 mb 0.00 in0.0 mm 0.00 in0.0 mm 0.00 in0.0 mm
09:50 PM 58.1°F14.5°C 46.0°F7.8°C 64% 15.9 mph W25.6 kmh W 32.7 mph52.6 kmh 30.04 in1017.3 mb 0.00 in0.0 mm 0.00 in0.0 mm 0.00 in0.0 mm
09:55 PM 58.0°F14.4°C 45.6°F7.6°C 63% 16.0 mph W25.7 kmh W 30.6 mph49.2 kmh 30.03 in1016.9 mb 0.00 in0.0 mm 0.00 in0.0 mm 0.00 in0.0 mm
10:00 PM 57.9°F14.4°C 45.4°F7.4°C 63% 16.3 mph W26.2 kmh W 30.6 mph49.2 kmh 30.03 in1016.9 mb 0.00 in0.0 mm 0.00 in0.0 mm 0.00 in0.0 mm
10:05 PM 57.9°F14.4°C 45.4°F7.4°C 63% 16.3 mph W26.2 kmh W 26.8 mph43.1 kmh 30.03 in1016.9 mb 0.00 in0.0 mm 0.00 in0.0 mm 0.00 in0.0 mm
10:10 PM 57.9°F14.4°C 45.4°F7.4°C 63% 16.3 mph W26.2 kmh W 27.3 mph43.9 kmh 30.03 in1016.9 mb 0.00 in0.0 mm 0.00 in0.0 mm 0.00 in0.0 mm
10:15 PM 57.9°F14.4°C 45.5°F7.5°C 63% 16.0 mph W25.7 kmh W 27.3 mph43.9 kmh 30.03 in1016.9 mb 0.00 in0.0 mm 0.00 in0.0 mm 0.00 in0.0 mm
10:20 PM 57.7°F14.3°C 45.6°F7.6°C 64% 15.2 mph W24.5 kmh W 28.0 mph45.1 kmh 30.03 in1016.9 mb 0.00 in0.0 mm 0.00 in0.0 mm 0.00 in0.0 mm
10:25 PM 57.8°F14.3°C 45.3°F7.4°C 63% 16.0 mph W25.7 kmh W 29.5 mph47.5 kmh 30.03 in1016.9 mb 0.00 in0.0 mm 0.00 in0.0 mm 0.00 in0.0 mm
10:30 PM 57.9°F14.4°C 45.4°F7.4°C 63% 17.9 mph W28.8 kmh W 28.4 mph45.7 kmh 30.03 in1016.9 mb 0.00 in0.0 mm 0.00 in0.0 mm 0.00 in0.0 mm
10:35 PM 57.9°F14.4°C 45.4°F7.4°C 63% 17.9 mph W28.8 kmh W 26.8 mph43.1 kmh 30.03 in1016.9 mb 0.00 in0.0 mm 0.00 in0.0 mm 0.00 in0.0 mm
10:40 PM 58.0°F14.4°C 45.4°F7.4°C 63% 17.9 mph W28.8 kmh W 25.7 mph41.4 kmh 30.03 in1016.9 mb 0.00 in0.0 mm 0.00 in0.0 mm 0.00 in0.0 mm
10:45 PM 58.0°F14.4°C 45.4°F7.4°C 63% 17.8 mph W28.6 kmh W 29.8 mph48.0 kmh 30.03 in1016.9 mb 0.00 in0.0 mm 0.00 in0.0 mm 0.00 in0.0 mm
10:50 PM 57.9°F14.4°C 45.4°F7.4°C 63% 17.4 mph W28.0 kmh W 25.7 mph41.4 kmh 30.03 in1016.9 mb 0.00 in0.0 mm 0.00 in0.0 mm 0.00 in0.0 mm
10:55 PM 58.0°F14.4°C 45.4°F7.4°C 63% 17.1 mph W27.5 kmh W 26.2 mph42.2 kmh 30.02 in1016.6 mb 0.00 in0.0 mm 0.00 in0.0 mm 0.00 in0.0 mm
11:00 PM 58.2°F14.6°C 45.2°F7.3°C 62% 16.3 mph W26.2 kmh W 24.2 mph38.9 kmh 30.02 in1016.6 mb 0.00 in0.0 mm 0.00 in0.0 mm 0.00 in0.0 mm
11:05 PM 58.2°F14.6°C 45.3°F7.4°C 62% 16.1 mph W25.9 kmh W 25.3 mph40.7 kmh 30.02 in1016.6 mb 0.00 in0.0 mm 0.00 in0.0 mm 0.00 in0.0 mm
11:10 PM 58.2°F14.6°C 45.3°F7.4°C 62% 15.7 mph W25.3 kmh W 27.3 mph43.9 kmh 30.02 in1016.6 mb 0.00 in0.0 mm 0.00 in0.0 mm 0.00 in0.0 mm
11:15 PM 58.1°F14.5°C 45.2°F7.3°C 62% 15.8 mph W25.4 kmh W 25.3 mph40.7 kmh 30.02 in1016.6 mb 0.00 in0.0 mm 0.00 in0.0 mm 0.00 in0.0 mm
11:20 PM 58.1°F14.5°C 45.2°F7.3°C 62% 16.3 mph W26.2 kmh W 24.6 mph39.6 kmh 30.02 in1016.6 mb 0.00 in0.0 mm 0.00 in0.0 mm 0.00 in0.0 mm
11:25 PM 58.2°F14.6°C 45.2°F7.3°C 62% 16.5 mph W26.6 kmh W 26.8 mph43.1 kmh 30.01 in1016.3 mb 0.00 in0.0 mm 0.00 in0.0 mm 0.00 in0.0 mm
11:30 PM 58.3°F14.6°C 45.3°F7.4°C 62% 17.0 mph WSW27.4 kmh WSW 27.3 mph43.9 kmh 30.01 in1016.3 mb 0.00 in0.0 mm 0.00 in0.0 mm 0.00 in0.0 mm
11:35 PM 58.3°F14.6°C 45.3°F7.4°C 62% 16.4 mph WSW26.4 kmh WSW 25.7 mph41.4 kmh 30.01 in1016.3 mb 0.00 in0.0 mm 0.00 in0.0 mm 0.00 in0.0 mm
11:40 PM 58.5°F14.7°C 45.2°F7.3°C 61% 14.8 mph WSW23.8 kmh WSW 26.2 mph42.2 kmh 30.01 in1016.3 mb 0.00 in0.0 mm 0.00 in0.0 mm 0.00 in0.0 mm
11:45 PM 58.5°F14.7°C 45.1°F7.3°C 61% 14.9 mph W24.0 kmh W 22.4 mph36.0 kmh 30.01 in1016.3 mb 0.00 in0.0 mm 0.00 in0.0 mm 0.00 in0.0 mm
11:50 PM 58.5°F14.7°C 45.1°F7.3°C 61% 15.2 mph W24.5 kmh W 26.2 mph42.2 kmh 30.01 in1016.3 mb 0.00 in0.0 mm 0.00 in0.0 mm 0.00 in0.0 mm
11:55 PM 58.5°F14.7°C 45.1°F7.3°C 61% 15.4 mph W24.8 kmh W 26.8 mph43.1 kmh 30.01 in1016.3 mb 0.00 in0.0 mm 0.00 in0.0 mm 0.00 in0.0 mm